Time;durP1;ratioP1;P1;durP2;ratioP2;P2;SDS_P1;SDS_P2;PMS_P1;PMS_P2;Temp;Humidity;BMP_temperature;BMP_pressure;BME280_temperature;BME280_humidity;BME280_pressure;Samples;Min_cycle;Max_cycle;Signal;HPM_P1;HPM_P2
2022/11/19 00:00:44;;;;;;;2.47;1.48;;;1.50;99.90;;;;;;5053163;28;20040;-68
2022/11/19 00:03:14;;;;;;;3.13;1.70;;;1.30;99.90;;;;;;5053570;28;20075;-68
2022/11/19 00:05:41;;;;;;;3.20;1.55;;;1.20;99.90;;;;;;5053572;28;20017;-68
2022/11/19 00:08:07;;;;;;;3.10;1.42;;;1.10;99.90;;;;;;5053356;28;20066;-68
2022/11/19 00:10:34;;;;;;;2.03;1.58;;;1.10;99.90;;;;;;5052643;28;20021;-68
2022/11/19 00:13:01;;;;;;;1.60;1.50;;;1.20;99.90;;;;;;5053972;28;20075;-68
2022/11/19 00:15:26;;;;;;;3.92;1.80;;;1.20;99.90;;;;;;5053187;28;20051;-68
2022/11/19 00:17:52;;;;;;;2.75;1.63;;;1.30;99.90;;;;;;5053405;28;20116;-68
2022/11/19 00:20:17;;;;;;;2.00;1.67;;;1.40;99.90;;;;;;5053243;28;20039;-68
2022/11/19 00:22:46;;;;;;;3.58;1.77;;;1.40;99.90;;;;;;5053364;28;20472;-68
2022/11/19 00:25:11;;;;;;;2.63;2.17;;;1.50;99.90;;;;;;5052561;28;20024;-68
2022/11/19 00:27:37;;;;;;;3.38;2.08;;;1.60;99.90;;;;;;5053570;28;20028;-68
2022/11/19 00:30:04;;;;;;;6.10;2.50;;;1.70;99.90;;;;;;5052953;28;20036;-68
2022/11/19 00:32:30;;;;;;;2.95;1.85;;;1.70;99.90;;;;;;5053555;28;20025;-68
2022/11/19 00:34:56;;;;;;;5.35;2.38;;;1.80;99.90;;;;;;5052402;28;20481;-68
2022/11/19 00:37:22;;;;;;;5.57;2.25;;;1.80;99.90;;;;;;5053473;28;20068;-68
2022/11/19 00:39:47;;;;;;;3.28;2.15;;;1.90;99.90;;;;;;5052798;28;20108;-68
2022/11/19 00:42:13;;;;;;;4.85;2.08;;;1.90;99.90;;;;;;5052868;28;20018;-68
2022/11/19 00:44:39;;;;;;;3.35;1.65;;;2.00;99.90;;;;;;5051954;28;20050;-68
2022/11/19 00:47:04;;;;;;;3.13;2.13;;;2.00;99.90;;;;;;5052919;28;20492;-68
2022/11/19 00:49:30;;;;;;;5.78;2.00;;;2.00;99.90;;;;;;5052386;28;20021;-68
2022/11/19 00:51:55;;;;;;;2.40;2.00;;;2.00;99.90;;;;;;5052787;28;20021;-68
2022/11/19 00:54:21;;;;;;;2.30;1.70;;;2.00;99.90;;;;;;5053343;28;20431;-68
2022/11/19 00:56:46;;;;;;;3.45;1.90;;;2.00;99.90;;;;;;5052708;28;20031;-68
2022/11/19 00:59:12;;;;;;;4.70;2.17;;;2.00;99.90;;;;;;5052806;28;20021;-68
2022/11/19 01:01:38;;;;;;;3.58;2.45;;;2.00;99.90;;;;;;5052415;28;20095;-68
2022/11/19 01:04:04;;;;;;;3.55;1.65;;;2.00;99.90;;;;;;5053240;28;20400;-68
2022/11/19 01:06:30;;;;;;;4.45;2.53;;;1.90;99.90;;;;;;5055100;28;20464;-68
2022/11/19 01:08:56;;;;;;;9.73;4.07;;;1.90;99.90;;;;;;5056772;28;20112;-68
2022/11/19 01:11:27;;;;;;;9.35;4.07;;;1.90;99.90;;;;;;5056396;28;20021;-68
2022/11/19 01:13:53;;;;;;;6.10;2.90;;;1.90;99.90;;;;;;5056058;28;20033;-68
2022/11/19 01:16:44;;;;;;;4.78;2.75;;;1.90;99.90;;;;;;5056329;28;20060;-68
2022/11/19 01:19:11;;;;;;;10.00;2.92;;;2.00;99.90;;;;;;5056650;28;20033;-68
2022/11/19 01:21:36;;;;;;;2.20;2.00;;;2.00;99.90;;;;;;5056574;28;20100;-69
2022/11/19 01:24:03;;;;;;;3.58;2.10;;;1.90;99.90;;;;;;5057828;28;20439;-68
2022/11/19 01:26:29;;;;;;;2.47;1.65;;;1.70;99.90;;;;;;5075982;28;20067;-68
2022/11/19 01:28:56;;;;;;;3.92;2.13;;;1.70;99.90;;;;;;5076232;28;20020;-68
2022/11/19 01:31:25;;;;;;;4.03;2.40;;;1.60;99.90;;;;;;5075957;28;20032;-68
2022/11/19 01:33:51;;;;;;;4.30;2.17;;;1.60;99.90;;;;;;5076104;28;20062;-68
2022/11/19 01:36:22;;;;;;;3.75;2.20;;;1.60;99.90;;;;;;5075621;28;20029;-68
2022/11/19 01:38:53;;;;;;;4.75;2.47;;;1.50;99.90;;;;;;5076080;28;20025;-68
2022/11/19 01:41:30;;;;;;;3.60;2.17;;;1.50;99.90;;;;;;5076275;28;20021;-68
2022/11/19 01:44:01;;;;;;;4.07;2.30;;;1.40;99.90;;;;;;5075348;28;20028;-68
2022/11/19 01:46:30;;;;;;;5.35;2.15;;;1.40;99.90;;;;;;5076065;28;20023;-68
2022/11/19 01:49:03;;;;;;;2.95;2.35;;;1.50;99.90;;;;;;5076008;28;20028;-68
2022/11/19 01:51:34;;;;;;;4.03;2.33;;;1.50;99.90;;;;;;5075823;28;20020;-68
2022/11/19 01:54:13;;;;;;;5.40;2.55;;;1.50;99.90;;;;;;5075700;28;20013;-68
2022/11/19 01:56:38;;;;;;;3.35;2.40;;;1.50;99.90;;;;;;5068748;28;20036;-68
2022/11/19 01:59:12;;;;;;;3.22;2.20;;;1.50;99.90;;;;;;5075653;28;20032;-68
2022/11/19 02:01:37;;;;;;;11.15;2.75;;;1.50;99.90;;;;;;5073836;28;20032;-68
2022/11/19 02:04:05;;;;;;;4.18;2.45;;;1.60;99.90;;;;;;5055499;28;20513;-68
2022/11/19 02:06:32;;;;;;;4.70;2.72;;;1.60;99.90;;;;;;5068115;28;20021;-68
2022/11/19 02:08:58;;;;;;;3.42;2.67;;;1.60;99.90;;;;;;5053980;28;20025;-68
2022/11/19 02:11:51;;;;;;;2.58;2.00;;;1.60;99.90;;;;;;5054962;28;20074;-68
2022/11/19 02:14:27;;;;;;;4.85;2.67;;;1.60;99.90;;;;;;5055265;28;20025;-68
2022/11/19 02:17:17;;;;;;;6.07;2.13;;;1.60;99.90;;;;;;5054672;28;20025;-68
2022/11/19 02:20:01;;;;;;;5.47;2.70;;;1.60;99.90;;;;;;5054967;28;20104;-68
2022/11/19 02:22:54;;;;;;;3.60;2.40;;;1.60;99.90;;;;;;5055414;28;20040;-68
2022/11/19 02:25:38;;;;;;;3.97;2.65;;;1.60;99.90;;;;;;5063977;28;20526;-67
2022/11/19 02:28:39;;;;;;;5.00;2.30;;;1.60;99.90;;;;;;5075256;28;20025;-68
2022/11/19 02:31:13;;;;;;;4.15;2.50;;;1.70;99.90;;;;;;4992826;28;20030;-68
2022/11/19 02:33:52;;;;;;;4.35;3.17;;;1.70;99.90;;;;;;5062988;28;20570;-67
2022/11/19 02:39:47;;;;;;;3.10;2.28;;;1.50;99.90;;;;;;5054693;28;20455;-68
2022/11/19 02:42:23;;;;;;;4.68;2.75;;;1.20;99.90;;;;;;5055084;28;20025;-68
2022/11/19 02:44:58;;;;;;;2.75;2.47;;;1.00;99.90;;;;;;5054410;28;20017;-67
2022/11/19 02:47:29;;;;;;;4.97;2.25;;;0.80;99.90;;;;;;5054958;28;20028;-68
2022/11/19 02:49:59;;;;;;;3.70;2.47;;;0.70;99.90;;;;;;5054429;28;20021;-68
2022/11/19 02:52:27;;;;;;;4.68;3.17;;;0.60;99.90;;;;;;5054857;28;20074;-68
2022/11/19 02:54:52;;;;;;;6.03;3.10;;;0.50;99.90;;;;;;5054708;28;20033;-68
2022/11/19 02:57:18;;;;;;;4.13;3.13;;;0.50;99.90;;;;;;5053916;28;20047;-68
2022/11/19 03:05:34;;;;;;;10.23;3.85;;;0.20;99.90;;;;;;5054780;28;20380;-68
2022/11/19 03:08:00;;;;;;;5.78;3.25;;;0.10;99.90;;;;;;5054190;28;20032;-67
2022/11/19 03:10:35;;;;;;;5.95;3.78;;;0.10;99.90;;;;;;5054096;28;20021;-68
2022/11/19 03:19:07;;;;;;;5.10;2.88;;;-0.10;99.90;;;;;;5054432;28;20140;-68
2022/11/19 03:21:56;;;;;;;3.83;2.72;;;-0.20;99.90;;;;;;5054034;28;20404;-68
2022/11/19 03:25:04;;;;;;;6.30;3.03;;;-0.30;99.90;;;;;;5053243;28;20044;-68
2022/11/19 03:27:37;;;;;;;5.78;3.42;;;-0.40;99.90;;;;;;5020094;28;20039;-68
2022/11/19 03:30:04;;;;;;;5.95;3.05;;;-0.40;99.90;;;;;;5053614;28;20377;-68
2022/11/19 03:32:43;;;;;;;6.80;3.38;;;-0.40;99.90;;;;;;5053774;28;20108;-68
2022/11/19 03:35:15;;;;;;;8.00;3.80;;;-0.50;99.90;;;;;;5053367;28;20029;-68
2022/11/19 03:37:42;;;;;;;6.55;4.00;;;-0.40;99.90;;;;;;5053757;28;20021;-68
2022/11/19 03:40:09;;;;;;;5.82;3.75;;;-0.50;99.90;;;;;;5053427;28;20047;-68
2022/11/19 03:42:35;;;;;;;6.63;4.38;;;-0.50;99.90;;;;;;5053839;28;20021;-68
2022/11/19 03:45:07;;;;;;;7.45;3.65;;;-0.60;99.90;;;;;;5053545;28;20071;-68
2022/11/19 03:47:36;;;;;;;7.10;4.45;;;-0.60;99.90;;;;;;5053728;28;20431;-68
2022/11/19 03:50:11;;;;;;;11.35;5.18;;;-0.60;99.90;;;;;;5052510;28;20017;-68
2022/11/19 03:52:37;;;;;;;13.98;5.72;;;-0.60;99.90;;;;;;5053480;28;20025;-68
2022/11/19 03:55:02;;;;;;;14.00;6.47;;;-0.70;99.90;;;;;;5053414;28;20086;-68
2022/11/19 03:57:28;;;;;;;13.60;6.53;;;-0.60;99.90;;;;;;5052832;28;20151;-67
2022/11/19 03:59:53;;;;;;;11.18;5.63;;;-0.60;99.90;;;;;;5053173;28;20033;-68
2022/11/19 04:02:19;;;;;;;19.25;7.45;;;-0.60;99.90;;;;;;5053390;28;20036;-68
2022/11/19 04:04:45;;;;;;;13.63;6.00;;;-0.60;99.90;;;;;;5053336;28;20025;-68
2022/11/19 04:07:18;;;;;;;11.63;6.28;;;-0.60;99.90;;;;;;5053222;28;20017;-68
2022/11/19 04:09:44;;;;;;;;;;;-0.60;99.90;;;;;;5054196;28;20040;-68
2022/11/19 04:12:21;;;;;;;8.82;5.20;;;-0.60;99.90;;;;;;5053030;28;19904;-68
2022/11/19 04:14:47;;;;;;;10.15;5.53;;;-0.60;99.90;;;;;;5053449;28;20021;-68
2022/11/19 04:17:13;;;;;;;10.70;5.63;;;-0.70;99.90;;;;;;5053297;28;20031;-68
2022/11/19 04:19:39;;;;;;;14.85;5.90;;;-0.80;99.90;;;;;;5053314;28;20116;-68
2022/11/19 04:22:04;;;;;;;12.25;5.25;;;-0.80;99.90;;;;;;5053121;28;20120;-68
2022/11/19 04:24:30;;;;;;;8.30;4.40;;;-0.80;99.90;;;;;;5052554;28;20072;-68
2022/11/19 04:26:55;;;;;;;11.85;5.35;;;-0.90;99.90;;;;;;5052974;28;20025;-68
2022/11/19 04:29:21;;;;;;;7.38;4.43;;;-0.80;99.90;;;;;;5054244;28;20025;-68
2022/11/19 04:31:46;;;;;;;5.63;4.20;;;-0.90;99.90;;;;;;5073279;28;20484;-68
2022/11/19 04:34:12;;;;;;;6.78;3.75;;;-0.90;99.90;;;;;;5073018;28;20043;-68
2022/11/19 04:36:40;;;;;;;9.23;4.55;;;-0.90;99.90;;;;;;5072494;28;20037;-68
2022/11/19 04:39:06;;;;;;;9.45;4.70;;;-0.90;99.90;;;;;;5070236;28;20490;-68
2022/11/19 04:41:32;;;;;;;14.05;5.15;;;-1.00;99.90;;;;;;5055203;28;20408;-68
2022/11/19 04:43:58;;;;;;;10.35;5.47;;;-0.90;99.90;;;;;;5057274;28;20029;-68
2022/11/19 04:46:23;;;;;;;13.20;5.70;;;-0.90;99.90;;;;;;5057176;28;20021;-68
2022/11/19 04:48:49;;;;;;;8.68;4.43;;;-1.00;99.90;;;;;;5056632;28;20032;-67
2022/11/19 04:51:14;;;;;;;7.45;4.55;;;-1.00;99.90;;;;;;5056728;28;20029;-68
2022/11/19 04:53:40;;;;;;;13.55;5.63;;;-1.00;99.90;;;;;;5056751;28;20025;-68
2022/11/19 04:56:06;;;;;;;8.98;4.93;;;-1.00;99.90;;;;;;5056618;28;20053;-68
2022/11/19 04:58:32;;;;;;;11.55;4.90;;;-1.10;99.90;;;;;;5056315;28;20492;-68
2022/11/19 05:00:57;;;;;;;8.43;3.97;;;-1.10;99.90;;;;;;5056592;28;20044;-68
2022/11/19 05:03:23;;;;;;;14.23;4.38;;;-1.20;99.90;;;;;;5057000;28;20017;-67
2022/11/19 05:05:48;;;;;;;9.68;4.80;;;-1.20;99.90;;;;;;5056920;28;20028;-68
2022/11/19 05:08:14;;;;;;;7.10;4.15;;;-1.10;99.90;;;;;;5056386;28;20021;-68
2022/11/19 05:10:39;;;;;;;6.93;3.40;;;-1.10;99.90;;;;;;5056951;28;20021;-67
2022/11/19 05:13:05;;;;;;;10.95;3.80;;;-1.20;99.90;;;;;;5056459;28;20033;-67
2022/11/19 05:15:30;;;;;;;8.65;3.95;;;-1.20;99.90;;;;;;5056815;28;20048;-68
2022/11/19 05:17:56;;;;;;;8.23;3.30;;;-1.30;99.90;;;;;;5056389;28;20028;-67
2022/11/19 05:20:21;;;;;;;5.90;3.97;;;-1.40;99.90;;;;;;5056504;28;20029;-68
2022/11/19 05:22:47;;;;;;;6.43;3.67;;;-1.30;99.90;;;;;;5055822;28;20075;-67
2022/11/19 05:25:12;;;;;;;17.95;7.57;;;-1.20;99.90;;;;;;5056450;28;20017;-67
2022/11/19 05:27:38;;;;;;;46.08;18.13;;;-1.20;99.90;;;;;;5056269;28;20048;-68
2022/11/19 05:30:04;;;;;;;70.45;28.17;;;-1.30;99.90;;;;;;5056355;28;20025;-67
2022/11/19 05:32:30;;;;;;;106.40;40.30;;;-1.40;99.90;;;;;;5056115;28;20055;-67
2022/11/19 05:34:55;;;;;;;178.70;61.42;;;-1.50;99.90;;;;;;5056012;28;20057;-67
2022/11/19 05:37:20;;;;;;;236.70;70.60;;;-1.50;99.90;;;;;;5055514;28;20074;-68
2022/11/19 05:39:46;;;;;;;199.75;65.07;;;-1.60;99.90;;;;;;5055844;28;20392;-67
2022/11/19 05:42:12;;;;;;;393.35;145.15;;;-1.50;99.90;;;;;;5055901;28;20021;-67
2022/11/19 05:44:37;;;;;;;515.53;198.50;;;-1.50;99.90;;;;;;5055919;28;20056;-67
2022/11/19 05:47:03;;;;;;;648.70;251.77;;;-1.60;99.90;;;;;;5055586;28;20104;-68
2022/11/19 05:49:28;;;;;;;698.67;244.93;;;-1.60;99.90;;;;;;5055705;28;20056;-67
2022/11/19 05:51:54;;;;;;;515.58;159.55;;;-1.60;99.90;;;;;;5055428;28;20071;-67
2022/11/19 05:54:19;;;;;;;338.02;91.78;;;-1.60;99.90;;;;;;5056068;28;20488;-67
2022/11/19 05:56:45;;;;;;;502.52;136.35;;;-1.60;99.90;;;;;;5055641;28;20053;-68
2022/11/19 05:59:10;;;;;;;602.40;182.63;;;-1.70;99.90;;;;;;5054748;28;20025;-68
2022/11/19 06:01:36;;;;;;;776.40;283.83;;;-1.70;99.90;;;;;;5055532;28;20021;-68
2022/11/19 06:04:01;;;;;;;637.55;209.07;;;-1.80;99.90;;;;;;5055556;28;20476;-68
2022/11/19 06:06:27;;;;;;;595.15;177.63;;;-1.80;99.90;;;;;;5055617;28;20017;-67
2022/11/19 06:08:52;;;;;;;528.55;143.15;;;-1.90;99.90;;;;;;5054989;28;20029;-67
2022/11/19 06:12:03;;;;;;;582.53;174.65;;;-1.80;99.90;;;;;;5055208;28;20033;-68
2022/11/19 06:14:04;;;;;;;556.30;179.20;;;-1.80;99.90;;;;;;5047981;28;20040;-67
2022/11/19 06:16:29;;;;;;;624.78;211.65;;;-1.90;99.90;;;;;;5055170;28;20025;-67
2022/11/19 06:18:55;;;;;;;284.92;79.70;;;-1.90;99.90;;;;;;5053792;28;20027;-68
2022/11/19 06:21:21;;;;;;;220.95;62.25;;;-1.90;99.90;;;;;;5054311;28;20384;-67
2022/11/19 06:23:46;;;;;;;121.13;37.47;;;-1.90;99.90;;;;;;5071610;28;20060;-67
2022/11/19 06:26:22;;;;;;;76.90;28.83;;;-1.90;99.90;;;;;;5075135;28;20021;-68
2022/11/19 06:28:47;;;;;;;67.63;22.05;;;-1.90;99.90;;;;;;5075347;28;20023;-67
2022/11/19 06:31:13;;;;;;;73.53;23.98;;;-1.90;99.90;;;;;;5064864;28;20119;-68
2022/11/19 06:33:38;;;;;;;72.13;22.50;;;-1.90;99.90;;;;;;5054772;28;20477;-67
2022/11/19 06:36:04;;;;;;;97.40;36.63;;;-1.90;99.90;;;;;;5054805;28;20041;-67
2022/11/19 06:38:29;;;;;;;91.03;35.53;;;-1.80;99.90;;;;;;5054880;28;20024;-67
2022/11/19 06:40:55;;;;;;;124.13;46.55;;;-1.70;99.90;;;;;;5054214;28;20036;-67
2022/11/19 06:43:20;;;;;;;249.18;94.18;;;-1.60;99.90;;;;;;5054645;28;20100;-67
2022/11/19 06:45:46;;;;;;;252.70;79.38;;;-1.50;99.90;;;;;;5054770;28;20434;-68
2022/11/19 06:48:11;;;;;;;160.02;49.10;;;-1.30;99.90;;;;;;5054721;28;20425;-68
2022/11/19 06:50:37;;;;;;;54.53;21.35;;;-1.10;99.90;;;;;;5054326;28;20390;-67
2022/11/19 06:53:02;;;;;;;57.63;25.88;;;-0.90;99.90;;;;;;5054685;28;20093;-68
2022/11/19 06:55:28;;;;;;;97.50;38.53;;;-0.80;99.90;;;;;;5054691;28;20052;-67
2022/11/19 06:57:53;;;;;;;210.52;70.88;;;-0.80;99.90;;;;;;5054561;28;20036;-67
2022/11/19 07:00:19;;;;;;;33.60;13.25;;;-0.70;99.90;;;;;;5053996;28;20107;-67
2022/11/19 07:02:46;;;;;;;16.85;8.25;;;-0.70;99.90;;;;;;5054429;28;20484;-67
2022/11/19 07:05:11;;;;;;;168.30;51.08;;;-0.70;99.90;;;;;;5054203;28;20042;-67
2022/11/19 07:07:37;;;;;;;667.08;218.18;;;-0.60;99.90;;;;;;5054300;28;20029;-67
2022/11/19 07:10:03;;;;;;;395.55;131.48;;;-0.50;99.90;;;;;;5054518;28;20384;-67
2022/11/19 07:12:28;;;;;;;122.43;33.03;;;-0.40;99.90;;;;;;5054305;28;20461;-68
2022/11/19 07:14:54;;;;;;;145.88;39.10;;;-0.40;99.90;;;;;;5053868;28;20392;-68
2022/11/19 07:17:19;;;;;;;176.88;44.30;;;-0.30;99.90;;;;;;5054136;28;20052;-67
2022/11/19 07:19:45;;;;;;;189.73;49.10;;;-0.30;99.90;;;;;;5054271;28;20111;-67
2022/11/19 07:22:10;;;;;;;147.73;44.65;;;-0.40;99.90;;;;;;5053970;28;20025;-68
2022/11/19 07:24:36;;;;;;;48.03;15.63;;;-0.40;99.90;;;;;;5054046;28;20063;-68
2022/11/19 07:27:01;;;;;;;169.07;58.85;;;-0.30;99.90;;;;;;5054243;28;20021;-68
2022/11/19 07:29:27;;;;;;;86.07;28.65;;;-0.40;99.90;;;;;;5053504;28;20338;-68
2022/11/19 07:31:52;;;;;;;191.07;63.20;;;-0.30;99.90;;;;;;5072044;28;20012;-68
2022/11/19 07:34:19;;;;;;;105.65;45.50;;;-0.30;99.90;;;;;;5073775;28;20058;-68
2022/11/19 07:36:45;;;;;;;38.17;19.05;;;-0.30;99.90;;;;;;5074005;28;20032;-68
2022/11/19 07:39:11;;;;;;;102.72;41.42;;;-0.30;99.90;;;;;;5073666;28;20029;-68
2022/11/19 07:44:21;;;;;;;496.75;191.77;;;-0.20;99.90;;;;;;5074301;28;20528;-68
2022/11/19 07:46:46;;;;;;;290.92;123.78;;;-0.20;99.90;;;;;;5073606;28;20020;-68
2022/11/19 07:49:12;;;;;;;155.48;62.70;;;-0.20;99.90;;;;;;5073487;28;20020;-68
2022/11/19 07:51:37;;;;;;;84.88;34.97;;;-0.10;99.90;;;;;;5073053;28;20031;-68
2022/11/19 07:54:03;;;;;;;52.15;21.98;;;-0.10;99.90;;;;;;5073595;28;20032;-68
2022/11/19 07:56:29;;;;;;;91.78;34.63;;;-0.10;99.90;;;;;;5073538;28;20020;-68
2022/11/19 07:58:54;;;;;;;96.75;31.25;;;-0.10;99.90;;;;;;5073491;28;20487;-68
2022/11/19 08:01:22;;;;;;;135.95;43.03;;;0.00;99.90;;;;;;5072964;28;20040;-68
2022/11/19 08:03:50;;;;;;;196.07;69.05;;;0.00;99.90;;;;;;5073689;28;20017;-67
2022/11/19 08:06:17;;;;;;;277.85;100.60;;;0.00;99.90;;;;;;5073396;28;20025;-68
2022/11/19 08:08:43;;;;;;;269.05;96.18;;;0.00;99.90;;;;;;5073186;28;20495;-67
2022/11/19 08:11:10;;;;;;;46.60;18.65;;;0.00;99.90;;;;;;5073266;28;20480;-68
2022/11/19 08:13:36;;;;;;;19.05;7.75;;;0.10;99.90;;;;;;5073606;28;20025;-68
2022/11/19 08:16:04;;;;;;;16.27;6.63;;;0.10;99.90;;;;;;5073188;28;20020;-68
2022/11/19 08:18:31;;;;;;;12.80;6.03;;;0.10;99.90;;;;;;5073262;28;20047;-68
2022/11/19 08:21:03;;;;;;;10.50;5.65;;;0.10;99.90;;;;;;5072546;28;20035;-68
2022/11/19 08:23:29;;;;;;;15.15;5.78;;;0.20;99.90;;;;;;5073543;28;20391;-68
2022/11/19 08:25:54;;;;;;;14.50;4.80;;;0.20;99.90;;;;;;5073480;28;20023;-68
2022/11/19 08:28:20;;;;;;;11.52;5.15;;;0.10;99.90;;;;;;5072640;28;20025;-68
2022/11/19 08:30:45;;;;;;;11.10;5.07;;;0.10;99.90;;;;;;5073871;28;20043;-68
2022/11/19 08:33:11;;;;;;;14.68;6.10;;;0.00;99.90;;;;;;5073452;28;20024;-69
2022/11/19 08:35:37;;;;;;;15.18;6.35;;;0.10;99.90;;;;;;5073427;28;20412;-70
2022/11/19 08:38:02;;;;;;;14.63;6.15;;;0.10;99.90;;;;;;5072537;28;20028;-68
2022/11/19 08:40:28;;;;;;;14.30;5.90;;;0.20;99.90;;;;;;5072907;28;20033;-68
2022/11/19 08:42:59;;;;;;;12.27;6.50;;;0.30;99.90;;;;;;5073094;28;20050;-68
2022/11/19 08:45:36;;;;;;;17.60;8.68;;;0.50;99.90;;;;;;5073144;28;20021;-68
2022/11/19 08:48:04;;;;;;;57.53;19.60;;;0.60;99.90;;;;;;5073286;28;20048;-68
2022/11/19 08:50:30;;;;;;;60.53;17.02;;;0.70;99.90;;;;;;5072355;28;20111;-67
2022/11/19 08:53:03;;;;;;;104.00;26.35;;;0.90;99.90;;;;;;5073089;28;20052;-68
2022/11/19 08:55:30;;;;;;;121.13;24.17;;;1.00;99.90;;;;;;5073246;28;20029;-68
2022/11/19 08:57:59;;;;;;;24.38;8.05;;;1.10;99.90;;;;;;5073098;28;20060;-68
2022/11/19 09:00:24;;;;;;;52.38;12.95;;;1.20;99.90;;;;;;5073004;28;20036;-68
2022/11/19 09:02:50;;;;;;;22.65;7.28;;;1.30;99.90;;;;;;5072268;28;20020;-68
2022/11/19 09:05:15;;;;;;;38.15;9.45;;;1.30;99.90;;;;;;5072785;28;20110;-68
2022/11/19 09:07:41;;;;;;;47.67;11.68;;;1.30;99.90;;;;;;5073039;28;20155;-68
2022/11/19 09:10:08;;;;;;;72.43;16.27;;;1.40;99.90;;;;;;5071114;28;20107;-68
2022/11/19 09:12:33;;;;;;;58.92;12.02;;;1.40;99.90;;;;;;5072107;28;20039;-68
2022/11/19 09:14:59;;;;;;;64.35;14.40;;;1.50;99.90;;;;;;5073264;28;20024;-68
2022/11/19 09:17:24;;;;;;;74.88;14.13;;;1.40;99.90;;;;;;5054716;28;20020;-68
2022/11/19 09:19:50;;;;;;;33.90;9.02;;;1.40;99.90;;;;;;5072805;28;20076;-68
2022/11/19 09:22:15;;;;;;;40.88;8.68;;;1.40;99.90;;;;;;5072640;28;20482;-68
2022/11/19 09:24:40;;;;;;;78.78;14.45;;;1.50;99.90;;;;;;5072287;28;20472;-68
2022/11/19 09:27:06;;;;;;;43.35;9.32;;;1.60;99.90;;;;;;5073286;28;20033;-68
2022/11/19 09:29:31;;;;;;;51.33;12.00;;;1.80;99.90;;;;;;5076070;28;20089;-68
2022/11/19 09:31:57;;;;;;;43.95;12.80;;;1.90;99.90;;;;;;5076177;28;20021;-68
2022/11/19 09:34:23;;;;;;;26.67;10.00;;;1.90;99.90;;;;;;5075623;28;20434;-68
2022/11/19 09:36:48;;;;;;;40.33;13.85;;;1.90;99.90;;;;;;5076065;28;20017;-68
2022/11/19 09:39:14;;;;;;;23.27;8.05;;;2.00;99.90;;;;;;5076362;28;20024;-68
2022/11/19 09:41:59;;;;;;;24.92;8.35;;;2.10;99.90;;;;;;5076407;28;20081;-68
2022/11/19 09:44:43;;;;;;;15.88;5.78;;;2.00;99.90;;;;;;5076276;28;20031;-68
2022/11/19 09:47:46;;;;;;;15.98;7.25;;;1.80;99.90;;;;;;5075853;28;20024;-68
2022/11/19 09:50:19;;;;;;;15.55;6.95;;;1.80;99.90;;;;;;5075935;28;20033;-68
2022/11/19 09:52:55;;;;;;;9.60;5.13;;;1.70;99.90;;;;;;5076055;28;20020;-68
2022/11/19 09:55:36;;;;;;;14.93;6.03;;;1.80;99.90;;;;;;5075261;28;20501;-68
2022/11/19 09:58:09;;;;;;;20.52;6.20;;;1.90;99.90;;;;;;5075728;28;20476;-68
2022/11/19 10:00:35;;;;;;;9.60;5.47;;;2.00;99.90;;;;;;5075478;28;20032;-68
2022/11/19 10:03:10;;;;;;;8.05;4.95;;;2.00;99.90;;;;;;5075017;28;20025;-67
2022/11/19 10:06:04;;;;;;;14.05;5.38;;;2.10;99.90;;;;;;5075650;28;20021;-68
2022/11/19 10:08:38;;;;;;;9.18;4.65;;;2.20;99.90;;;;;;5067195;28;20045;-68
2022/11/19 10:11:28;;;;;;;13.50;4.80;;;2.20;99.90;;;;;;5075383;28;20473;-68
2022/11/19 10:14:06;;;;;;;10.18;4.25;;;2.20;99.90;;;;;;5075585;28;20036;-68
2022/11/19 10:16:40;;;;;;;7.53;4.68;;;2.30;99.90;;;;;;5075674;28;20029;-68
2022/11/19 10:19:15;;;;;;;13.35;4.35;;;2.30;99.90;;;;;;5074963;28;20028;-68
2022/11/19 10:22:03;;;;;;;5.72;3.55;;;2.40;99.90;;;;;;5075383;28;20546;-68
2022/11/19 10:25:22;;;;;;;11.73;4.50;;;2.50;99.90;;;;;;5075509;28;20361;-68
2022/11/19 10:27:56;;;;;;;8.40;3.58;;;2.50;99.90;;;;;;5041578;28;20048;-68
2022/11/19 10:30:24;;;;;;;12.55;3.17;;;2.50;99.90;;;;;;5074641;28;20021;-67
2022/11/19 10:33:15;;;;;;;11.52;4.15;;;2.60;99.90;;;;;;5075040;28;20480;-68
2022/11/19 10:35:48;;;;;;;8.80;3.67;;;2.60;99.90;;;;;;5075250;28;20036;-68
2022/11/19 10:38:23;;;;;;;7.43;4.32;;;2.70;99.90;;;;;;5074314;28;20028;-68
2022/11/19 10:40:55;;;;;;;4.47;3.17;;;2.80;99.90;;;;;;5074849;28;20071;-68
2022/11/19 10:43:49;;;;;;;8.70;2.80;;;2.80;99.90;;;;;;5074543;28;20057;-67
2022/11/19 10:46:20;;;;;;;10.40;4.18;;;2.90;99.90;;;;;;5075649;28;20107;-68
2022/11/19 10:48:50;;;;;;;9.00;4.28;;;3.00;99.90;;;;;;5074999;28;20032;-68
2022/11/19 10:51:41;;;;;;;11.63;3.42;;;3.00;99.90;;;;;;5074870;28;20498;-68
2022/11/19 10:54:21;;;;;;;6.03;3.42;;;3.10;99.90;;;;;;5074182;28;20408;-68
2022/11/19 10:56:48;;;;;;;9.65;3.33;;;3.30;99.90;;;;;;5074837;28;20086;-68
2022/11/19 10:59:24;;;;;;;9.82;2.53;;;3.30;99.90;;;;;;5074733;28;20035;-68
2022/11/19 11:02:00;;;;;;;3.13;2.35;;;3.30;99.90;;;;;;5074593;28;20037;-68
2022/11/19 11:04:28;;;;;;;10.73;3.83;;;3.40;99.90;;;;;;5074720;28;20027;-68
2022/11/19 11:06:59;;;;;;;13.43;4.30;;;3.50;99.90;;;;;;5074110;28;20055;-68
2022/11/19 11:09:41;;;;;;;7.20;3.17;;;3.50;99.90;;;;;;5074237;28;20017;-68
2022/11/19 11:15:24;;;;;;;8.10;3.47;;;3.70;99.90;;;;;;5073968;28;20116;-68
2022/11/19 11:18:05;;;;;;;6.50;3.20;;;3.70;99.90;;;;;;5074765;28;20031;-68
2022/11/19 11:20:31;;;;;;;8.18;2.45;;;3.70;99.90;;;;;;5074447;28;20117;-68
2022/11/19 11:23:02;;;;;;;5.22;2.67;;;3.80;99.90;;;;;;5074029;28;20031;-68
2022/11/19 11:25:28;;;;;;;7.22;3.15;;;3.70;99.90;;;;;;5074480;28;20024;-68
2022/11/19 11:28:15;;;;;;;5.80;2.90;;;3.80;99.90;;;;;;5073942;28;20031;-68
2022/11/19 11:30:51;;;;;;;7.00;2.42;;;3.90;99.90;;;;;;5073987;28;20021;-68
2022/11/19 11:33:27;;;;;;;9.70;3.00;;;4.00;99.90;;;;;;5073416;28;20369;-68
2022/11/19 11:35:57;;;;;;;5.25;2.83;;;4.00;99.90;;;;;;5073864;28;20126;-68
2022/11/19 11:38:25;;;;;;;7.88;2.90;;;4.00;99.90;;;;;;5074044;28;20028;-68
2022/11/19 11:41:04;;;;;;;6.30;2.17;;;3.90;99.90;;;;;;5073805;28;20032;-68
2022/11/19 11:43:32;;;;;;;6.32;2.92;;;3.90;99.90;;;;;;5073209;28;20020;-68
2022/11/19 11:46:01;;;;;;;2.72;1.70;;;3.90;99.90;;;;;;5073938;28;20114;-68
2022/11/19 11:48:34;;;;;;;8.25;2.38;;;3.80;99.90;;;;;;5073883;28;20023;-68
2022/11/19 11:51:00;;;;;;;7.57;2.42;;;3.80;99.90;;;;;;5072974;28;20052;-67
2022/11/19 11:53:31;;;;;;;4.55;2.45;;;3.90;99.90;;;;;;5073565;28;20494;-68
2022/11/19 11:55:59;;;;;;;9.95;3.08;;;4.10;99.90;;;;;;5073510;28;20486;-68
2022/11/19 11:58:24;;;;;;;6.93;2.75;;;4.30;99.90;;;;;;5074079;28;20090;-68
2022/11/19 12:00:54;;;;;;;9.38;2.60;;;4.40;99.90;;;;;;5073174;28;20488;-68
2022/11/19 12:03:21;;;;;;;6.07;2.70;;;4.40;99.90;;;;;;5073498;28;20450;-68
2022/11/19 12:06:15;;;;;;;9.70;2.47;;;4.40;99.90;;;;;;5072821;28;20062;-68
2022/11/19 12:09:03;;;;;;;7.70;2.58;;;4.30;99.90;;;;;;5073707;28;20017;-68
2022/11/19 12:11:53;;;;;;;7.20;1.92;;;4.30;99.90;;;;;;5073298;28;20445;-68
2022/11/19 12:14:30;;;;;;;5.13;2.40;;;4.00;99.90;;;;;;5073582;28;20068;-68
2022/11/19 12:17:17;;;;;;;3.45;2.28;;;3.80;99.90;;;;;;5073293;28;20112;-67
2022/11/19 12:20:07;;;;;;;7.53;2.95;;;3.80;99.90;;;;;;5073404;28;20068;-68
2022/11/19 12:22:53;;;;;;;5.70;3.15;;;3.90;99.90;;;;;;5073521;28;20027;-68
2022/11/19 12:25:38;;;;;;;8.88;3.75;;;3.90;99.90;;;;;;5071873;28;20432;-67
2022/11/19 12:28:25;;;;;;;7.72;3.03;;;4.10;99.90;;;;;;5071799;28;20032;-68
2022/11/19 12:31:06;;;;;;;6.03;2.17;;;4.40;99.90;;;;;;5052301;28;20369;-67
2022/11/19 12:33:58;;;;;;;5.25;2.28;;;4.80;99.90;;;;;;5060343;28;20029;-68
2022/11/19 12:36:55;;;;;;;3.00;2.22;;;4.90;99.90;;;;;;5056214;28;20032;-68
2022/11/19 12:39:51;;;;;;;5.38;2.60;;;4.70;99.90;;;;;;5053486;28;20420;-68
2022/11/19 12:42:54;;;;;;;6.53;2.70;;;4.60;99.90;;;;;;5053038;28;20021;-68
2022/11/19 12:45:57;;;;;;;12.45;5.55;;;4.40;99.90;;;;;;5052439;28;20079;-68
2022/11/19 12:48:41;;;;;;;4.15;2.72;;;4.50;99.90;;;;;;5053282;28;20037;-68
2022/11/19 12:51:07;;;;;;;3.10;2.30;;;4.50;99.90;;;;;;5053133;28;20029;-68
2022/11/19 12:53:45;;;;;;;9.05;2.50;;;4.50;99.90;;;;;;5052943;28;20524;-68
2022/11/19 12:56:53;;;;;;;3.78;2.08;;;4.40;99.90;;;;;;5052580;28;20047;-68
2022/11/19 12:59:37;;;;;;;5.53;2.10;;;4.30;99.90;;;;;;5053109;28;20045;-68
2022/11/19 13:02:14;;;;;;;4.20;2.28;;;4.30;99.90;;;;;;5054090;28;20562;-68
2022/11/19 13:04:50;;;;;;;3.63;2.38;;;4.30;99.90;;;;;;5056366;28;20394;-68
2022/11/19 13:07:23;;;;;;;3.80;2.45;;;4.20;99.90;;;;;;5056687;28;20102;-68
2022/11/19 13:09:59;;;;;;;5.72;2.17;;;4.20;99.90;;;;;;5056884;28;20488;-68
2022/11/19 13:12:32;;;;;;;4.10;2.30;;;4.10;99.90;;;;;;5056723;28;20083;-68
2022/11/19 13:15:03;;;;;;;4.07;2.40;;;4.00;99.90;;;;;;5056902;28;20021;-68
2022/11/19 13:17:39;;;;;;;3.05;2.25;;;3.90;99.90;;;;;;5056701;28;20036;-68
2022/11/19 13:20:24;;;;;;;3.10;1.85;;;3.90;99.90;;;;;;5056182;28;20029;-68
2022/11/19 13:22:53;;;;;;;3.13;1.90;;;3.70;99.90;;;;;;5056399;28;20025;-68